sensor_id;sensor_type;location;lat;lon;timestamp;pressure;altitude;pressure_sealevel;temperature;humidity
59274;BME280;45044;41.572;24.730;2023-11-21T00:02:21;91188.84;;;2.14;100.00
59274;BME280;45044;41.572;24.730;2023-11-21T00:04:48;91183.44;;;2.07;100.00
59274;BME280;45044;41.572;24.730;2023-11-21T00:07:15;91197.69;;;2.00;100.00
59274;BME280;45044;41.572;24.730;2023-11-21T00:09:42;91204.69;;;1.87;100.00
59274;BME280;45044;41.572;24.730;2023-11-21T00:12:09;91198.34;;;1.97;100.00
59274;BME280;45044;41.572;24.730;2023-11-21T00:14:37;91204.09;;;2.03;100.00
59274;BME280;45044;41.572;24.730;2023-11-21T00:17:05;91203.09;;;2.08;100.00
59274;BME280;45044;41.572;24.730;2023-11-21T00:19:32;91215.13;;;2.12;100.00
59274;BME280;45044;41.572;24.730;2023-11-21T00:22:01;91215.53;;;2.14;100.00
59274;BME280;45044;41.572;24.730;2023-11-21T00:24:28;91217.19;;;2.19;100.00
59274;BME280;45044;41.572;24.730;2023-11-21T00:26:54;91218.50;;;1.79;100.00
59274;BME280;45044;41.572;24.730;2023-11-21T00:29:21;91222.81;;;1.87;100.00
59274;BME280;45044;41.572;24.730;2023-11-21T00:31:48;91215.41;;;1.98;100.00
59274;BME280;45044;41.572;24.730;2023-11-21T00:34:15;91204.06;;;1.90;100.00
59274;BME280;45044;41.572;24.730;2023-11-21T00:36:42;91212.69;;;1.95;100.00
59274;BME280;45044;41.572;24.730;2023-11-21T00:39:09;91218.41;;;1.88;100.00
59274;BME280;45044;41.572;24.730;2023-11-21T00:41:35;91212.22;;;1.80;100.00
59274;BME280;45044;41.572;24.730;2023-11-21T00:44:03;91213.00;;;1.81;100.00
59274;BME280;45044;41.572;24.730;2023-11-21T00:46:31;91211.94;;;1.82;100.00
59274;BME280;45044;41.572;24.730;2023-11-21T00:48:59;91207.16;;;1.84;100.00
59274;BME280;45044;41.572;24.730;2023-11-21T00:51:25;91199.44;;;1.96;100.00
59274;BME280;45044;41.572;24.730;2023-11-21T00:53:52;91198.66;;;1.96;100.00
59274;BME280;45044;41.572;24.730;2023-11-21T00:56:19;91183.28;;;1.78;100.00
59274;BME280;45044;41.572;24.730;2023-11-21T00:58:45;91194.84;;;1.81;100.00
59274;BME280;45044;41.572;24.730;2023-11-21T01:01:16;91198.38;;;1.63;100.00
59274;BME280;45044;41.572;24.730;2023-11-21T01:03:43;91196.59;;;1.55;100.00
59274;BME280;45044;41.572;24.730;2023-11-21T01:06:12;91202.72;;;1.38;100.00
59274;BME280;45044;41.572;24.730;2023-11-21T01:08:41;91201.50;;;1.35;100.00
59274;BME280;45044;41.572;24.730;2023-11-21T01:11:08;91205.31;;;1.38;100.00
59274;BME280;45044;41.572;24.730;2023-11-21T01:13:35;91207.94;;;1.50;100.00
59274;BME280;45044;41.572;24.730;2023-11-21T01:16:02;91221.53;;;1.47;100.00
59274;BME280;45044;41.572;24.730;2023-11-21T01:18:30;91221.13;;;1.58;100.00
59274;BME280;45044;41.572;24.730;2023-11-21T01:20:57;91214.22;;;1.62;100.00
59274;BME280;45044;41.572;24.730;2023-11-21T01:23:24;91213.06;;;1.38;100.00
59274;BME280;45044;41.572;24.730;2023-11-21T01:25:50;91206.00;;;1.04;100.00
59274;BME280;45044;41.572;24.730;2023-11-21T01:28:18;91209.09;;;1.19;100.00
59274;BME280;45044;41.572;24.730;2023-11-21T01:30:46;91198.16;;;1.13;100.00
59274;BME280;45044;41.572;24.730;2023-11-21T01:33:13;91202.22;;;1.23;100.00
59274;BME280;45044;41.572;24.730;2023-11-21T01:35:42;91189.16;;;0.98;100.00
59274;BME280;45044;41.572;24.730;2023-11-21T01:38:09;91188.66;;;1.05;100.00
59274;BME280;45044;41.572;24.730;2023-11-21T01:40:35;91189.97;;;1.11;100.00
59274;BME280;45044;41.572;24.730;2023-11-21T01:43:02;91192.41;;;1.07;100.00
59274;BME280;45044;41.572;24.730;2023-11-21T01:45:30;91186.19;;;1.09;100.00
59274;BME280;45044;41.572;24.730;2023-11-21T01:48:00;91191.91;;;0.93;100.00
59274;BME280;45044;41.572;24.730;2023-11-21T01:50:27;91185.81;;;0.98;100.00
59274;BME280;45044;41.572;24.730;2023-11-21T01:52:55;91181.13;;;1.12;100.00
59274;BME280;45044;41.572;24.730;2023-11-21T01:55:22;91185.78;;;1.19;100.00
59274;BME280;45044;41.572;24.730;2023-11-21T01:57:55;91182.69;;;1.04;100.00
59274;BME280;45044;41.572;24.730;2023-11-21T02:00:22;91179.72;;;1.15;100.00
59274;BME280;45044;41.572;24.730;2023-11-21T02:02:51;91168.19;;;0.91;100.00
59274;BME280;45044;41.572;24.730;2023-11-21T02:05:19;91183.34;;;1.01;100.00
59274;BME280;45044;41.572;24.730;2023-11-21T02:07:46;91179.72;;;0.93;100.00
59274;BME280;45044;41.572;24.730;2023-11-21T02:10:16;91177.09;;;1.02;100.00
59274;BME280;45044;41.572;24.730;2023-11-21T02:12:44;91178.16;;;1.01;100.00
59274;BME280;45044;41.572;24.730;2023-11-21T02:15:13;91182.38;;;1.06;100.00
59274;BME280;45044;41.572;24.730;2023-11-21T02:17:47;91188.19;;;1.03;100.00
59274;BME280;45044;41.572;24.730;2023-11-21T02:20:25;91176.81;;;0.95;100.00
59274;BME280;45044;41.572;24.730;2023-11-21T02:22:56;91189.31;;;0.93;100.00
59274;BME280;45044;41.572;24.730;2023-11-21T02:25:29;91189.31;;;0.93;100.00
59274;BME280;45044;41.572;24.730;2023-11-21T02:27:58;91184.72;;;0.99;100.00
59274;BME280;45044;41.572;24.730;2023-11-21T02:30:25;91186.56;;;0.98;100.00
59274;BME280;45044;41.572;24.730;2023-11-21T02:32:52;91181.66;;;1.05;100.00
59274;BME280;45044;41.572;24.730;2023-11-21T02:35:20;91183.41;;;1.14;100.00
59274;BME280;45044;41.572;24.730;2023-11-21T02:37:50;91185.78;;;1.19;100.00
59274;BME280;45044;41.572;24.730;2023-11-21T02:40:16;91184.09;;;1.02;100.00
59274;BME280;45044;41.572;24.730;2023-11-21T02:42:51;91163.38;;;0.80;100.00
59274;BME280;45044;41.572;24.730;2023-11-21T02:45:19;91180.31;;;0.78;100.00
59274;BME280;45044;41.572;24.730;2023-11-21T02:47:48;91179.28;;;0.70;100.00
59274;BME280;45044;41.572;24.730;2023-11-21T02:50:20;91168.75;;;0.75;100.00
59274;BME280;45044;41.572;24.730;2023-11-21T02:52:47;91174.88;;;0.70;100.00
59274;BME280;45044;41.572;24.730;2023-11-21T02:55:14;91180.19;;;0.74;100.00
59274;BME280;45044;41.572;24.730;2023-11-21T02:57:41;91161.94;;;0.70;100.00
59274;BME280;45044;41.572;24.730;2023-11-21T03:00:08;91168.50;;;0.89;100.00
59274;BME280;45044;41.572;24.730;2023-11-21T03:02:36;91172.94;;;0.89;100.00
59274;BME280;45044;41.572;24.730;2023-11-21T03:05:06;91164.72;;;0.87;100.00
59274;BME280;45044;41.572;24.730;2023-11-21T03:07:39;91168.19;;;0.91;100.00
59274;BME280;45044;41.572;24.730;2023-11-21T03:10:08;91126.28;;;0.76;100.00
59274;BME280;45044;41.572;24.730;2023-11-21T03:12:39;91164.31;;;0.97;100.00
59274;BME280;45044;41.572;24.730;2023-11-21T03:15:06;91169.00;;;1.04;100.00
59274;BME280;45044;41.572;24.730;2023-11-21T03:17:34;91172.88;;;0.98;100.00
59274;BME280;45044;41.572;24.730;2023-11-21T03:20:01;91157.00;;;0.99;100.00
59274;BME280;45044;41.572;24.730;2023-11-21T03:22:27;91178.31;;;0.75;100.00
59274;BME280;45044;41.572;24.730;2023-11-21T03:24:54;91167.94;;;0.83;100.00
59274;BME280;45044;41.572;24.730;2023-11-21T03:27:21;91171.28;;;0.84;100.00
59274;BME280;45044;41.572;24.730;2023-11-21T03:29:48;91165.09;;;0.76;100.00
59274;BME280;45044;41.572;24.730;2023-11-21T03:32:15;91154.91;;;0.71;100.00
59274;BME280;45044;41.572;24.730;2023-11-21T03:34:58;91162.94;;;0.78;100.00
59274;BME280;45044;41.572;24.730;2023-11-21T03:37:25;91167.06;;;0.79;100.00
59274;BME280;45044;41.572;24.730;2023-11-21T03:39:55;91157.34;;;0.76;100.00
59274;BME280;45044;41.572;24.730;2023-11-21T03:42:23;91163.88;;;0.52;100.00
59274;BME280;45044;41.572;24.730;2023-11-21T03:44:53;91159.16;;;0.54;100.00
59274;BME280;45044;41.572;24.730;2023-11-21T03:47:20;91157.34;;;0.46;100.00
59274;BME280;45044;41.572;24.730;2023-11-21T03:49:47;91156.50;;;0.63;100.00
59274;BME280;45044;41.572;24.730;2023-11-21T03:52:14;91157.72;;;0.35;100.00
59274;BME280;45044;41.572;24.730;2023-11-21T03:54:41;91158.97;;;0.59;100.00
59274;BME280;45044;41.572;24.730;2023-11-21T03:57:09;91163.44;;;0.71;100.00
59274;BME280;45044;41.572;24.730;2023-11-21T03:59:39;91162.69;;;0.92;100.00
59274;BME280;45044;41.572;24.730;2023-11-21T04:02:07;91157.72;;;0.87;100.00
59274;BME280;45044;41.572;24.730;2023-11-21T04:04:35;91158.25;;;0.71;100.00
59274;BME280;45044;41.572;24.730;2023-11-21T04:07:02;91153.03;;;0.80;100.00
59274;BME280;45044;41.572;24.730;2023-11-21T04:09:29;91156.09;;;0.52;100.00
59274;BME280;45044;41.572;24.730;2023-11-21T04:11:56;91154.97;;;0.62;100.00
59274;BME280;45044;41.572;24.730;2023-11-21T04:14:23;91146.72;;;0.69;100.00
59274;BME280;45044;41.572;24.730;2023-11-21T04:16:50;91164.66;;;0.74;100.00
59274;BME280;45044;41.572;24.730;2023-11-21T04:19:17;91168.03;;;0.66;100.00
59274;BME280;45044;41.572;24.730;2023-11-21T04:21:44;91163.31;;;0.68;100.00
59274;BME280;45044;41.572;24.730;2023-11-21T04:24:11;91166.34;;;0.70;100.00
59274;BME280;45044;41.572;24.730;2023-11-21T04:26:38;91154.50;;;0.69;100.00
59274;BME280;45044;41.572;24.730;2023-11-21T04:29:04;91162.16;;;0.56;100.00
59274;BME280;45044;41.572;24.730;2023-11-21T04:31:32;91161.91;;;0.49;100.00
59274;BME280;45044;41.572;24.730;2023-11-21T04:33:59;91158.13;;;0.46;100.00
59274;BME280;45044;41.572;24.730;2023-11-21T04:36:25;91164.06;;;0.47;100.00
59274;BME280;45044;41.572;24.730;2023-11-21T04:38:52;91152.88;;;0.55;100.00
59274;BME280;45044;41.572;24.730;2023-11-21T04:41:19;91151.19;;;0.59;100.00
59274;BME280;45044;41.572;24.730;2023-11-21T04:43:46;91160.53;;;0.52;100.00
59274;BME280;45044;41.572;24.730;2023-11-21T04:46:13;91162.66;;;0.50;100.00
59274;BME280;45044;41.572;24.730;2023-11-21T04:48:40;91158.50;;;0.57;100.00
59274;BME280;45044;41.572;24.730;2023-11-21T04:51:07;91167.16;;;0.62;100.00
59274;BME280;45044;41.572;24.730;2023-11-21T04:53:33;91158.44;;;0.66;100.00
59274;BME280;45044;41.572;24.730;2023-11-21T04:56:01;91163.19;;;0.64;100.00
59274;BME280;45044;41.572;24.730;2023-11-21T04:58:28;91169.41;;;0.42;100.00
59274;BME280;45044;41.572;24.730;2023-11-21T05:00:55;91171.91;;;0.59;100.00
59274;BME280;45044;41.572;24.730;2023-11-21T05:03:21;91173.97;;;0.45;100.00
59274;BME280;45044;41.572;24.730;2023-11-21T05:05:51;91176.63;;;0.57;100.00
59274;BME280;45044;41.572;24.730;2023-11-21T05:08:17;91183.13;;;0.64;100.00
59274;BME280;45044;41.572;24.730;2023-11-21T05:10:45;91180.97;;;0.66;100.00
59274;BME280;45044;41.572;24.730;2023-11-21T05:13:12;91173.53;;;0.64;100.00
59274;BME280;45044;41.572;24.730;2023-11-21T05:15:39;91176.31;;;0.59;100.00
59274;BME280;45044;41.572;24.730;2023-11-21T05:18:06;91178.47;;;0.27;100.00
59274;BME280;45044;41.572;24.730;2023-11-21T05:20:33;91180.19;;;0.44;100.00
59274;BME280;45044;41.572;24.730;2023-11-21T05:22:59;91179.56;;;0.47;100.00
59274;BME280;45044;41.572;24.730;2023-11-21T05:25:26;91177.09;;;0.20;100.00
59274;BME280;45044;41.572;24.730;2023-11-21T05:27:53;91180.41;;;0.30;100.00
59274;BME280;45044;41.572;24.730;2023-11-21T05:30:21;91180.81;;;0.41;100.00
59274;BME280;45044;41.572;24.730;2023-11-21T05:32:48;91186.53;;;0.55;100.00
59274;BME280;45044;41.572;24.730;2023-11-21T05:35:16;91191.88;;;0.50;100.00
59274;BME280;45044;41.572;24.730;2023-11-21T05:37:45;91194.41;;;0.59;100.00
59274;BME280;45044;41.572;24.730;2023-11-21T05:40:13;91192.38;;;0.43;100.00
59274;BME280;45044;41.572;24.730;2023-11-21T05:42:40;91201.16;;;0.51;100.00
59274;BME280;45044;41.572;24.730;2023-11-21T05:45:08;91206.91;;;0.27;100.00
59274;BME280;45044;41.572;24.730;2023-11-21T05:47:43;91202.53;;;0.49;100.00
59274;BME280;45044;41.572;24.730;2023-11-21T05:50:14;91195.91;;;0.60;100.00
59274;BME280;45044;41.572;24.730;2023-11-21T05:52:43;91203.22;;;0.67;100.00
59274;BME280;45044;41.572;24.730;2023-11-21T05:55:11;91193.13;;;0.74;100.00
59274;BME280;45044;41.572;24.730;2023-11-21T05:57:38;91205.88;;;0.79;100.00
59274;BME280;45044;41.572;24.730;2023-11-21T06:00:10;91206.91;;;0.87;100.00
59274;BME280;45044;41.572;24.730;2023-11-21T06:02:39;91214.59;;;0.96;100.00
59274;BME280;45044;41.572;24.730;2023-11-21T06:05:07;91206.75;;;0.83;100.00
59274;BME280;45044;41.572;24.730;2023-11-21T06:07:34;91220.22;;;0.98;100.00
59274;BME280;45044;41.572;24.730;2023-11-21T06:10:03;91216.88;;;0.98;100.00
59274;BME280;45044;41.572;24.730;2023-11-21T06:12:33;91217.91;;;1.05;100.00
59274;BME280;45044;41.572;24.730;2023-11-21T06:15:05;91216.03;;;1.06;100.00
59274;BME280;45044;41.572;24.730;2023-11-21T06:17:35;91216.63;;;1.12;100.00
59274;BME280;45044;41.572;24.730;2023-11-21T06:20:08;91217.69;;;1.32;100.00
59274;BME280;45044;41.572;24.730;2023-11-21T06:22:41;91218.47;;;1.33;100.00
59274;BME280;45044;41.572;24.730;2023-11-21T06:25:09;91221.50;;;1.69;100.00
59274;BME280;45044;41.572;24.730;2023-11-21T06:27:38;91216.75;;;2.30;100.00
59274;BME280;45044;41.572;24.730;2023-11-21T06:30:05;91219.34;;;3.33;100.00
59274;BME280;45044;41.572;24.730;2023-11-21T06:32:33;91233.25;;;4.60;100.00
59274;BME280;45044;41.572;24.730;2023-11-21T06:34:59;91219.88;;;5.93;100.00
59274;BME280;45044;41.572;24.730;2023-11-21T06:37:27;91215.25;;;7.03;100.00
59274;BME280;45044;41.572;24.730;2023-11-21T06:39:54;91222.00;;;8.38;100.00
59274;BME280;45044;41.572;24.730;2023-11-21T06:42:20;91212.66;;;7.65;100.00
59274;BME280;45044;41.572;24.730;2023-11-21T06:44:47;91211.94;;;8.02;100.00
59274;BME280;45044;41.572;24.730;2023-11-21T06:47:15;91212.13;;;8.66;100.00
59274;BME280;45044;41.572;24.730;2023-11-21T06:49:43;91212.34;;;9.74;100.00
59274;BME280;45044;41.572;24.730;2023-11-21T06:52:10;91205.59;;;9.80;100.00
59274;BME280;45044;41.572;24.730;2023-11-21T06:54:37;91209.03;;;9.06;100.00
59274;BME280;45044;41.572;24.730;2023-11-21T06:57:03;91208.03;;;9.29;100.00
59274;BME280;45044;41.572;24.730;2023-11-21T06:59:30;91206.94;;;9.37;100.00
59274;BME280;45044;41.572;24.730;2023-11-21T07:01:57;91202.44;;;9.30;100.00
59274;BME280;45044;41.572;24.730;2023-11-21T07:04:24;91193.72;;;9.15;100.00
59274;BME280;45044;41.572;24.730;2023-11-21T07:06:53;91188.59;;;8.73;100.00
59274;BME280;45044;41.572;24.730;2023-11-21T07:09:20;91195.25;;;9.23;100.00
59274;BME280;45044;41.572;24.730;2023-11-21T07:11:50;91205.03;;;9.27;100.00
59274;BME280;45044;41.572;24.730;2023-11-21T07:14:17;91210.44;;;8.43;100.00
59274;BME280;45044;41.572;24.730;2023-11-21T07:16:46;91200.06;;;9.14;100.00
59274;BME280;45044;41.572;24.730;2023-11-21T07:19:13;91209.06;;;8.15;100.00
59274;BME280;45044;41.572;24.730;2023-11-21T07:21:40;91203.09;;;8.60;100.00
59274;BME280;45044;41.572;24.730;2023-11-21T07:24:08;91200.06;;;8.16;100.00
59274;BME280;45044;41.572;24.730;2023-11-21T07:26:35;91207.00;;;8.35;100.00
59274;BME280;45044;41.572;24.730;2023-11-21T07:29:02;91198.31;;;8.69;100.00
59274;BME280;45044;41.572;24.730;2023-11-21T07:31:29;91197.84;;;9.20;100.00
59274;BME280;45044;41.572;24.730;2023-11-21T07:33:57;91197.91;;;8.25;100.00
59274;BME280;45044;41.572;24.730;2023-11-21T07:36:24;91206.47;;;8.60;100.00
59274;BME280;45044;41.572;24.730;2023-11-21T07:38:51;91199.53;;;8.37;100.00
59274;BME280;45044;41.572;24.730;2023-11-21T07:41:18;91198.91;;;7.72;100.00
59274;BME280;45044;41.572;24.730;2023-11-21T07:43:56;91203.72;;;8.04;100.00
59274;BME280;45044;41.572;24.730;2023-11-21T07:46:24;91202.41;;;8.21;100.00
59274;BME280;45044;41.572;24.730;2023-11-21T07:48:53;91198.63;;;7.81;100.00
59274;BME280;45044;41.572;24.730;2023-11-21T07:51:20;91206.50;;;7.84;100.00
59274;BME280;45044;41.572;24.730;2023-11-21T07:53:46;91211.66;;;7.77;100.00
59274;BME280;45044;41.572;24.730;2023-11-21T07:56:13;91209.53;;;7.86;100.00
59274;BME280;45044;41.572;24.730;2023-11-21T07:58:40;91203.06;;;7.76;100.00
59274;BME280;45044;41.572;24.730;2023-11-21T08:01:07;91208.28;;;7.76;100.00
59274;BME280;45044;41.572;24.730;2023-11-21T08:03:34;91194.66;;;7.94;100.00
59274;BME280;45044;41.572;24.730;2023-11-21T08:06:01;91198.06;;;7.64;100.00
59274;BME280;45044;41.572;24.730;2023-11-21T08:08:30;91186.13;;;8.46;100.00
59274;BME280;45044;41.572;24.730;2023-11-21T08:10:56;91196.16;;;7.95;100.00
59274;BME280;45044;41.572;24.730;2023-11-21T08:13:24;91201.59;;;8.59;100.00
59274;BME280;45044;41.572;24.730;2023-11-21T08:15:56;91197.56;;;8.72;100.00
59274;BME280;45044;41.572;24.730;2023-11-21T08:18:37;91193.41;;;8.22;100.00
59274;BME280;45044;41.572;24.730;2023-11-21T08:21:04;91194.41;;;8.07;100.00
59274;BME280;45044;41.572;24.730;2023-11-21T08:23:31;91201.22;;;7.77;100.00
59274;BME280;45044;41.572;24.730;2023-11-21T08:26:01;91193.28;;;8.08;100.00
59274;BME280;45044;41.572;24.730;2023-11-21T08:28:32;91202.63;;;8.50;100.00
59274;BME280;45044;41.572;24.730;2023-11-21T08:30:58;91190.91;;;8.82;100.00
59274;BME280;45044;41.572;24.730;2023-11-21T08:33:26;91184.75;;;9.23;100.00
59274;BME280;45044;41.572;24.730;2023-11-21T08:35:54;91184.09;;;9.34;100.00
59274;BME280;45044;41.572;24.730;2023-11-21T08:38:21;91175.66;;;9.96;100.00
59274;BME280;45044;41.572;24.730;2023-11-21T08:40:49;91178.69;;;10.12;100.00
59274;BME280;45044;41.572;24.730;2023-11-21T08:43:15;91181.69;;;9.03;100.00
59274;BME280;45044;41.572;24.730;2023-11-21T08:45:43;91177.75;;;9.46;100.00
59274;BME280;45044;41.572;24.730;2023-11-21T08:48:09;91176.81;;;9.09;100.00
59274;BME280;45044;41.572;24.730;2023-11-21T08:50:38;91178.28;;;8.99;100.00
59274;BME280;45044;41.572;24.730;2023-11-21T08:53:05;91174.28;;;9.27;100.00
59274;BME280;45044;41.572;24.730;2023-11-21T08:55:32;91167.97;;;9.32;100.00
59274;BME280;45044;41.572;24.730;2023-11-21T08:58:04;91178.66;;;8.97;100.00
59274;BME280;45044;41.572;24.730;2023-11-21T09:00:32;91173.25;;;8.72;100.00
59274;BME280;45044;41.572;24.730;2023-11-21T09:03:01;91159.25;;;9.13;100.00
59274;BME280;45044;41.572;24.730;2023-11-21T09:05:28;91160.13;;;9.39;100.00
59274;BME280;45044;41.572;24.730;2023-11-21T09:07:55;91168.72;;;8.69;100.00
59274;BME280;45044;41.572;24.730;2023-11-21T09:10:22;91162.59;;;9.10;100.00
59274;BME280;45044;41.572;24.730;2023-11-21T09:12:50;91154.47;;;9.33;100.00
59274;BME280;45044;41.572;24.730;2023-11-21T09:15:22;91152.66;;;9.45;100.00
59274;BME280;45044;41.572;24.730;2023-11-21T09:17:49;91145.91;;;9.55;100.00
59274;BME280;45044;41.572;24.730;2023-11-21T09:20:16;91145.50;;;9.42;100.00
59274;BME280;45044;41.572;24.730;2023-11-21T09:22:42;91147.38;;;8.67;100.00
59274;BME280;45044;41.572;24.730;2023-11-21T09:25:11;91135.91;;;8.93;100.00
59274;BME280;45044;41.572;24.730;2023-11-21T09:27:39;91137.91;;;9.18;100.00
59274;BME280;45044;41.572;24.730;2023-11-21T09:30:09;91131.44;;;8.94;100.00
59274;BME280;45044;41.572;24.730;2023-11-21T09:32:40;91143.63;;;8.64;100.00
59274;BME280;45044;41.572;24.730;2023-11-21T09:35:08;91139.19;;;8.76;100.00
59274;BME280;45044;41.572;24.730;2023-11-21T09:37:35;91135.59;;;9.02;100.00
59274;BME280;45044;41.572;24.730;2023-11-21T09:40:04;91125.44;;;8.93;100.00
59274;BME280;45044;41.572;24.730;2023-11-21T09:42:40;91112.34;;;8.97;100.00
59274;BME280;45044;41.572;24.730;2023-11-21T09:47:47;91100.34;;;8.92;100.00
59274;BME280;45044;41.572;24.730;2023-11-21T09:50:17;91108.28;;;9.07;100.00
59274;BME280;45044;41.572;24.730;2023-11-21T09:55:27;91103.59;;;9.71;100.00
59274;BME280;45044;41.572;24.730;2023-11-21T09:58:00;91104.75;;;9.96;100.00
59274;BME280;45044;41.572;24.730;2023-11-21T10:00:27;91097.25;;;10.49;100.00
59274;BME280;45044;41.572;24.730;2023-11-21T10:02:57;91089.03;;;11.62;100.00
59274;BME280;45044;41.572;24.730;2023-11-21T10:05:25;91082.59;;;12.27;100.00
59274;BME280;45044;41.572;24.730;2023-11-21T10:07:55;91082.41;;;12.49;100.00
59274;BME280;45044;41.572;24.730;2023-11-21T10:10:24;91069.91;;;12.99;100.00
59274;BME280;45044;41.572;24.730;2023-11-21T10:12:56;91065.56;;;13.79;100.00
59274;BME280;45044;41.572;24.730;2023-11-21T10:15:24;91056.75;;;14.13;100.00
59274;BME280;45044;41.572;24.730;2023-11-21T10:17:56;91064.16;;;14.46;100.00
59274;BME280;45044;41.572;24.730;2023-11-21T10:20:23;91058.19;;;14.42;100.00
59274;BME280;45044;41.572;24.730;2023-11-21T10:22:51;91060.91;;;13.59;100.00
59274;BME280;45044;41.572;24.730;2023-11-21T10:25:18;91065.19;;;12.79;100.00
59274;BME280;45044;41.572;24.730;2023-11-21T10:27:48;91054.38;;;12.70;100.00
59274;BME280;45044;41.572;24.730;2023-11-21T10:30:18;91045.31;;;12.71;100.00
59274;BME280;45044;41.572;24.730;2023-11-21T10:32:45;91049.34;;;11.91;100.00
59274;BME280;45044;41.572;24.730;2023-11-21T10:35:12;91066.31;;;11.11;100.00
59274;BME280;45044;41.572;24.730;2023-11-21T10:37:39;91047.34;;;11.53;100.00
59274;BME280;45044;41.572;24.730;2023-11-21T10:40:07;91046.59;;;11.49;100.00
59274;BME280;45044;41.572;24.730;2023-11-21T10:42:39;91052.97;;;11.55;100.00
59274;BME280;45044;41.572;24.730;2023-11-21T10:45:08;91054.41;;;11.64;100.00
59274;BME280;45044;41.572;24.730;2023-11-21T10:47:42;91037.66;;;11.92;100.00
59274;BME280;45044;41.572;24.730;2023-11-21T10:50:09;91038.28;;;12.15;100.00
59274;BME280;45044;41.572;24.730;2023-11-21T10:52:40;91035.34;;;12.02;100.00
59274;BME280;45044;41.572;24.730;2023-11-21T10:55:20;91013.97;;;12.38;100.00
59274;BME280;45044;41.572;24.730;2023-11-21T10:57:49;91023.25;;;12.54;100.00
59274;BME280;45044;41.572;24.730;2023-11-21T11:00:18;91016.25;;;12.36;100.00
59274;BME280;45044;41.572;24.730;2023-11-21T11:02:50;91007.44;;;12.54;100.00
59274;BME280;45044;41.572;24.730;2023-11-21T11:05:20;91014.66;;;12.46;100.00
59274;BME280;45044;41.572;24.730;2023-11-21T11:07:55;91019.34;;;12.27;100.00
59274;BME280;45044;41.572;24.730;2023-11-21T11:10:27;91000.69;;;12.03;100.00
59274;BME280;45044;41.572;24.730;2023-11-21T11:12:57;91001.28;;;12.26;100.00
59274;BME280;45044;41.572;24.730;2023-11-21T11:15:25;90999.19;;;12.09;100.00
59274;BME280;45044;41.572;24.730;2023-11-21T11:17:53;91007.38;;;12.19;100.00
59274;BME280;45044;41.572;24.730;2023-11-21T11:20:31;90997.31;;;12.06;100.00
59274;BME280;45044;41.572;24.730;2023-11-21T11:28:55;90992.13;;;11.95;100.00
59274;BME280;45044;41.572;24.730;2023-11-21T11:34:29;91001.53;;;11.93;100.00
59274;BME280;45044;41.572;24.730;2023-11-21T11:37:05;90987.50;;;12.10;100.00
59274;BME280;45044;41.572;24.730;2023-11-21T11:39:38;90989.72;;;12.16;100.00
59274;BME280;45044;41.572;24.730;2023-11-21T11:42:16;90990.19;;;12.80;100.00
59274;BME280;45044;41.572;24.730;2023-11-21T11:47:13;90989.09;;;14.16;91.96
59274;BME280;45044;41.572;24.730;2023-11-21T11:52:44;90977.50;;;13.86;96.49
59274;BME280;45044;41.572;24.730;2023-11-21T11:55:15;90977.84;;;13.64;98.25
59274;BME280;45044;41.572;24.730;2023-11-21T11:57:54;90977.25;;;13.52;97.50
59274;BME280;45044;41.572;24.730;2023-11-21T12:03:03;90973.41;;;13.57;98.51
59274;BME280;45044;41.572;24.730;2023-11-21T12:05:32;90967.13;;;13.75;100.00
59274;BME280;45044;41.572;24.730;2023-11-21T12:08:02;90963.44;;;13.69;95.37
59274;BME280;45044;41.572;24.730;2023-11-21T12:10:31;90970.94;;;13.15;100.00
59274;BME280;45044;41.572;24.730;2023-11-21T12:13:05;90955.56;;;12.78;100.00
59274;BME280;45044;41.572;24.730;2023-11-21T12:15:34;90968.22;;;12.56;100.00
59274;BME280;45044;41.572;24.730;2023-11-21T12:18:03;90960.28;;;12.60;100.00
59274;BME280;45044;41.572;24.730;2023-11-21T12:20:30;90953.03;;;12.32;100.00
59274;BME280;45044;41.572;24.730;2023-11-21T12:22:58;90939.66;;;12.86;100.00
59274;BME280;45044;41.572;24.730;2023-11-21T12:25:28;90931.00;;;13.68;100.00
59274;BME280;45044;41.572;24.730;2023-11-21T12:28:02;90935.19;;;14.34;96.64
59274;BME280;45044;41.572;24.730;2023-11-21T12:30:31;90945.09;;;14.91;98.51
59274;BME280;45044;41.572;24.730;2023-11-21T12:32:59;90936.22;;;14.60;97.15
59274;BME280;45044;41.572;24.730;2023-11-21T12:35:34;90948.66;;;15.21;94.19
59274;BME280;45044;41.572;24.730;2023-11-21T12:38:04;90950.09;;;15.42;81.99
59274;BME280;45044;41.572;24.730;2023-11-21T12:40:32;90944.97;;;15.52;81.74
59274;BME280;45044;41.572;24.730;2023-11-21T12:43:00;90943.91;;;15.12;86.26
59274;BME280;45044;41.572;24.730;2023-11-21T12:45:29;90950.47;;;14.87;79.29
59274;BME280;45044;41.572;24.730;2023-11-21T12:48:00;90942.47;;;14.06;83.97
59274;BME280;45044;41.572;24.730;2023-11-21T12:50:30;90941.47;;;13.20;86.40
59274;BME280;45044;41.572;24.730;2023-11-21T12:53:03;90943.00;;;13.45;88.83
59274;BME280;45044;41.572;24.730;2023-11-21T12:55:32;90953.38;;;13.84;84.42
59274;BME280;45044;41.572;24.730;2023-11-21T12:58:06;90950.69;;;13.63;87.73
59274;BME280;45044;41.572;24.730;2023-11-21T13:00:45;90952.53;;;13.91;84.24
59274;BME280;45044;41.572;24.730;2023-11-21T13:03:14;90955.69;;;13.82;83.52
59274;BME280;45044;41.572;24.730;2023-11-21T13:05:47;90955.63;;;13.85;87.79
59274;BME280;45044;41.572;24.730;2023-11-21T13:08:19;90958.22;;;13.37;93.63
59274;BME280;45044;41.572;24.730;2023-11-21T13:10:54;90962.53;;;13.24;87.51
59274;BME280;45044;41.572;24.730;2023-11-21T13:13:23;90952.84;;;12.86;89.67
59274;BME280;45044;41.572;24.730;2023-11-21T13:15:56;90959.19;;;12.92;96.08
59274;BME280;45044;41.572;24.730;2023-11-21T13:18:24;90962.47;;;12.68;100.00